Time;durP1;ratioP1;P1;durP2;ratioP2;P2;SDS_P1;SDS_P2;PMS_P1;PMS_P2;Temp;Humidity;BMP_temperature;BMP_pressure;BME280_temperature;BME280_humidity;BME280_pressure;Samples;Min_cycle;Max_cycle;Signal;HPM_P1;HPM_P2
2022/06/13 00:02:21;;;;;;;1.20;0.95;;;16.50;65.70;;;;;;5093403;28;20029;-62
2022/06/13 00:04:46;;;;;;;1.27;0.73;;;16.50;65.90;;;;;;5077557;28;20040;-62
2022/06/13 00:07:12;;;;;;;2.15;0.90;;;16.50;66.00;;;;;;5083432;28;20035;-61
2022/06/13 00:09:38;;;;;;;2.95;1.92;;;16.40;65.90;;;;;;5080275;28;20028;-61
2022/06/13 00:12:04;;;;;;;2.83;1.20;;;16.40;66.00;;;;;;5083966;28;20031;-62
2022/06/13 00:14:29;;;;;;;0.82;0.82;;;16.40;66.10;;;;;;5086862;28;20128;-62
2022/06/13 00:16:55;;;;;;;0.80;0.80;;;16.40;66.20;;;;;;5092979;28;20126;-62
2022/06/13 00:19:21;;;;;;;1.65;1.00;;;16.40;66.20;;;;;;5085092;28;20033;-61
2022/06/13 00:21:46;;;;;;;5.97;1.50;;;16.30;66.20;;;;;;5074248;28;20047;-61
2022/06/13 00:24:12;;;;;;;2.35;1.08;;;16.30;66.40;;;;;;5079946;28;20047;-61
2022/06/13 00:26:38;;;;;;;1.88;0.80;;;16.30;66.40;;;;;;5085614;28;20060;-61
2022/06/13 00:29:04;;;;;;;1.15;0.93;;;16.30;66.50;;;;;;5079314;28;20446;-61
2022/06/13 00:31:30;;;;;;;1.27;1.17;;;16.20;66.50;;;;;;5068699;28;20026;-61
2022/06/13 00:33:55;;;;;;;1.00;0.73;;;16.20;66.60;;;;;;5079805;28;20037;-62
2022/06/13 00:36:23;;;;;;;4.70;1.00;;;16.20;66.70;;;;;;5097791;28;20134;-62
2022/06/13 00:38:52;;;;;;;2.00;1.00;;;16.10;66.80;;;;;;5083911;28;20035;-62
2022/06/13 00:41:25;;;;;;;5.03;1.23;;;16.10;66.90;;;;;;5076202;28;20059;-62
2022/06/13 00:43:52;;;;;;;1.52;0.95;;;16.10;67.00;;;;;;5078282;28;20028;-61
2022/06/13 00:46:27;;;;;;;2.17;0.95;;;16.10;67.10;;;;;;5085946;28;20466;-62
2022/06/13 00:48:57;;;;;;;1.88;1.70;;;16.10;67.20;;;;;;5074954;28;20082;-62
2022/06/13 00:51:24;;;;;;;1.52;1.38;;;16.00;67.30;;;;;;5082575;28;20069;-62
2022/06/13 00:53:50;;;;;;;5.18;1.10;;;16.00;67.40;;;;;;5093230;28;20030;-62
2022/06/13 00:56:19;;;;;;;1.00;0.90;;;16.00;67.40;;;;;;5094020;28;20436;-62
2022/06/13 00:58:52;;;;;;;6.32;1.30;;;16.00;67.40;;;;;;5099828;28;20024;-62
2022/06/13 01:01:19;;;;;;;2.33;1.27;;;16.00;67.50;;;;;;5087780;28;20082;-62
2022/06/13 01:03:46;;;;;;;3.90;1.20;;;16.00;67.70;;;;;;5087438;28;20105;-62
2022/06/13 01:06:12;;;;;;;2.53;1.27;;;16.00;68.10;;;;;;5083631;28;20029;-62
2022/06/13 01:08:39;;;;;;;3.30;1.63;;;16.00;68.30;;;;;;5102974;28;20131;-62
2022/06/13 01:11:18;;;;;;;1.80;1.35;;;16.10;68.30;;;;;;5092338;28;20067;-62
2022/06/13 01:14:15;;;;;;;1.63;1.00;;;16.10;68.40;;;;;;5096615;28;20027;-61
2022/06/13 01:17:20;;;;;;;6.43;1.27;;;16.20;68.50;;;;;;5094087;28;20036;-62
2022/06/13 01:20:27;;;;;;;3.42;1.52;;;16.10;68.50;;;;;;5098319;28;20020;-62
2022/06/13 01:22:58;;;;;;;2.28;0.98;;;16.20;68.80;;;;;;5074182;28;20552;-61
2022/06/13 01:25:39;;;;;;;1.00;0.90;;;16.20;68.80;;;;;;5077309;28;20165;-62
2022/06/13 01:28:42;;;;;;;0.80;0.73;;;16.20;68.70;;;;;;5071796;28;20274;-62
2022/06/13 01:31:26;;;;;;;;;;;16.20;68.70;;;;;;5074374;28;20495;-61
2022/06/13 01:34:09;;;;;;;3.03;1.30;;;16.20;69.00;;;;;;5079598;28;19939;-61
2022/06/13 01:36:41;;;;;;;4.95;1.30;;;16.30;69.00;;;;;;5102700;28;20028;-62
2022/06/13 01:39:50;;;;;;;1.40;1.00;;;16.30;69.00;;;;;;5082253;28;20043;-62
2022/06/13 01:42:37;;;;;;;1.95;1.15;;;16.30;69.10;;;;;;5067405;28;20166;-62
2022/06/13 01:45:30;;;;;;;1.77;1.05;;;16.40;69.20;;;;;;5106528;28;20517;-62
2022/06/13 01:48:20;;;;;;;1.48;1.15;;;16.40;69.20;;;;;;5087985;28;20020;-62
2022/06/13 01:50:58;;;;;;;1.15;0.77;;;16.50;69.40;;;;;;5078699;28;20028;-62
2022/06/13 01:53:33;;;;;;;2.58;1.27;;;16.50;69.30;;;;;;5081332;28;20110;-62
2022/06/13 01:56:15;;;;;;;4.47;1.45;;;16.60;69.50;;;;;;5077668;28;20127;-62
2022/06/13 01:59:01;;;;;;;1.90;1.13;;;16.60;69.50;;;;;;5081304;28;20047;-62
2022/06/13 02:01:38;;;;;;;1.10;0.85;;;16.70;69.50;;;;;;5075599;28;20473;-62
2022/06/13 02:04:43;;;;;;;3.38;1.20;;;16.70;69.50;;;;;;5085749;28;20418;-62
2022/06/13 02:07:16;;;;;;;1.15;1.05;;;16.70;69.60;;;;;;5092321;28;20074;-63
2022/06/13 02:09:54;;;;;;;3.85;1.33;;;16.70;69.70;;;;;;5092503;28;20107;-61
2022/06/13 02:12:24;;;;;;;2.13;1.40;;;16.70;70.00;;;;;;5078975;28;20020;-62
2022/06/13 02:14:57;;;;;;;2.75;1.50;;;16.60;70.10;;;;;;5081430;28;20029;-62
2022/06/13 02:17:28;;;;;;;3.30;1.52;;;16.60;70.30;;;;;;5070869;28;20119;-62
2022/06/13 02:20:06;;;;;;;2.63;1.27;;;16.70;70.40;;;;;;5092760;28;20031;-62
2022/06/13 02:23:11;;;;;;;1.75;1.10;;;16.70;70.40;;;;;;5086634;28;20369;-62
2022/06/13 02:25:45;;;;;;;7.97;1.38;;;16.80;70.50;;;;;;5023787;28;20037;-61
2022/06/13 02:28:17;;;;;;;1.88;1.35;;;16.70;70.50;;;;;;5073470;28;20036;-62
2022/06/13 02:30:45;;;;;;;;;;;16.80;70.50;;;;;;5082643;28;20035;-61
2022/06/13 02:33:19;;;;;;;2.63;1.25;;;16.80;70.50;;;;;;5086636;28;20371;-61
2022/06/13 02:35:50;;;;;;;2.33;1.60;;;16.80;70.40;;;;;;5087317;28;20027;-62
2022/06/13 02:38:47;;;;;;;1.35;1.25;;;16.80;70.30;;;;;;5085434;28;20031;-62
2022/06/13 02:41:18;;;;;;;0.73;0.73;;;16.90;70.20;;;;;;5073691;28;20039;-61
2022/06/13 02:43:52;;;;;;;2.00;1.50;;;16.90;70.30;;;;;;5105700;27;20033;-61
2022/06/13 02:46:46;;;;;;;2.25;1.27;;;16.90;70.30;;;;;;5081688;28;20027;-61
2022/06/13 02:49:32;;;;;;;3.30;0.98;;;16.90;70.30;;;;;;5073450;28;20036;-62
2022/06/13 02:52:24;;;;;;;1.45;1.15;;;16.90;70.30;;;;;;5077314;28;20016;-62
2022/06/13 02:55:04;;;;;;;3.40;1.27;;;16.90;70.30;;;;;;5074595;28;20058;-62
2022/06/13 02:57:40;;;;;;;1.83;1.00;;;16.90;70.40;;;;;;5072990;28;20032;-61
2022/06/13 03:00:30;;;;;;;1.48;1.27;;;16.90;70.50;;;;;;5071608;28;20056;-62
2022/06/13 03:03:10;;;;;;;1.83;1.38;;;16.90;70.60;;;;;;5086523;28;20055;-62
2022/06/13 03:05:42;;;;;;;1.67;1.10;;;16.80;70.60;;;;;;5081836;28;20844;-62
2022/06/13 03:08:13;;;;;;;1.58;1.10;;;16.80;70.80;;;;;;5074830;28;20086;-62
2022/06/13 03:10:58;;;;;;;2.00;1.10;;;16.70;70.90;;;;;;5088538;28;20653;-62
2022/06/13 03:13:32;;;;;;;1.20;0.90;;;16.70;71.00;;;;;;5090209;28;20522;-61
2022/06/13 03:16:10;;;;;;;1.65;1.27;;;16.70;71.10;;;;;;5084444;28;20024;-61
2022/06/13 03:18:47;;;;;;;2.13;1.33;;;16.60;71.90;;;;;;5085867;28;20108;-63
2022/06/13 03:21:19;;;;;;;1.73;1.08;;;16.60;71.40;;;;;;5088990;28;20028;-62
2022/06/13 03:23:48;;;;;;;2.72;1.80;;;16.60;71.40;;;;;;5077555;28;20028;-62
2022/06/13 03:26:22;;;;;;;2.63;1.10;;;16.50;71.50;;;;;;5074408;28;20016;-61
2022/06/13 03:29:17;;;;;;;1.20;1.10;;;16.50;71.60;;;;;;5081601;28;20111;-62
2022/06/13 03:31:48;;;;;;;1.00;0.90;;;16.50;71.60;;;;;;5056930;28;20032;-62
2022/06/13 03:34:20;;;;;;;5.00;1.67;;;16.50;71.60;;;;;;5068577;28;20407;-62
2022/06/13 03:36:48;;;;;;;;;;;16.50;71.60;;;;;;5069503;28;20279;-62
2022/06/13 03:39:38;;;;;;;2.35;1.10;;;16.50;71.90;;;;;;5071688;28;19915;-63
2022/06/13 03:42:18;;;;;;;1.55;1.33;;;16.50;71.90;;;;;;5070724;28;20031;-62
2022/06/13 03:44:51;;;;;;;2.03;1.13;;;16.50;71.90;;;;;;5070225;28;20029;-62
2022/06/13 03:47:36;;;;;;;;;;;16.50;71.90;;;;;;5073313;28;20360;-62
2022/06/13 03:50:23;;;;;;;1.30;1.20;;;16.60;72.10;;;;;;5084467;28;19918;-62
2022/06/13 03:53:03;;;;;;;3.95;1.60;;;16.60;72.10;;;;;;5086728;28;20028;-62
2022/06/13 03:55:34;;;;;;;3.17;1.35;;;16.60;72.10;;;;;;5078541;28;20029;-61
2022/06/13 03:58:27;;;;;;;1.27;1.17;;;16.60;72.20;;;;;;5080294;28;20055;-62
2022/06/13 04:01:05;;;;;;;;;;;16.60;72.20;;;;;;5090263;28;20257;-62
2022/06/13 04:03:31;;;;;;;2.13;1.20;;;16.60;72.30;;;;;;5093744;28;20386;-60
2022/06/13 04:06:04;;;;;;;9.65;1.60;;;16.60;72.30;;;;;;5084779;28;20032;-62
2022/06/13 04:08:32;;;;;;;2.50;1.08;;;16.60;72.20;;;;;;5080346;28;20036;-62
2022/06/13 04:11:30;;;;;;;2.40;1.38;;;16.70;72.30;;;;;;5084223;28;20089;-61
2022/06/13 04:14:10;;;;;;;2.42;1.65;;;16.70;72.20;;;;;;5075523;28;20039;-61
2022/06/13 04:17:06;;;;;;;4.35;1.02;;;16.70;72.10;;;;;;5091090;28;20039;-62
2022/06/13 04:19:54;;;;;;;1.73;1.40;;;16.70;72.20;;;;;;5083062;28;20038;-62
2022/06/13 04:22:48;;;;;;;1.70;1.35;;;16.80;72.40;;;;;;5077128;28;20399;-62
2022/06/13 04:25:25;;;;;;;3.97;1.10;;;16.80;72.30;;;;;;5074649;28;20012;-61
2022/06/13 04:28:07;;;;;;;2.63;1.25;;;16.80;72.30;;;;;;5082449;28;20029;-62
2022/06/13 04:30:35;;;;;;;2.15;1.52;;;16.90;72.90;;;;;;5084801;28;20020;-61
2022/06/13 04:33:07;;;;;;;6.38;1.95;;;16.90;72.40;;;;;;5085596;28;20024;-62
2022/06/13 04:35:34;;;;;;;1.65;0.98;;;16.80;72.40;;;;;;5073868;28;20370;-61
2022/06/13 04:38:03;;;;;;;1.40;0.90;;;16.90;72.50;;;;;;5072964;28;20455;-62
2022/06/13 04:40:30;;;;;;;2.20;1.25;;;17.00;72.40;;;;;;5070149;28;20754;-61
2022/06/13 04:42:58;;;;;;;1.42;0.95;;;16.90;72.50;;;;;;5078237;28;20032;-63
2022/06/13 04:45:31;;;;;;;1.42;1.20;;;17.00;72.50;;;;;;5080899;28;20028;-61
2022/06/13 04:47:57;;;;;;;5.65;1.52;;;17.00;72.50;;;;;;5069665;28;20115;-60
2022/06/13 04:50:46;;;;;;;3.95;1.77;;;17.00;72.60;;;;;;5076631;28;20036;-62
2022/06/13 04:53:38;;;;;;;1.77;1.40;;;17.10;72.60;;;;;;5071052;28;20479;-63
2022/06/13 04:56:04;;;;;;;3.33;1.75;;;17.10;72.60;;;;;;5077000;28;20032;-61
2022/06/13 04:58:37;;;;;;;2.25;1.60;;;17.10;72.60;;;;;;5075017;28;20294;-61
2022/06/13 05:01:09;;;;;;;2.00;1.48;;;17.20;72.50;;;;;;5066001;28;20063;-62
2022/06/13 05:03:41;;;;;;;3.33;2.00;;;17.20;72.40;;;;;;5068672;28;20418;-62
2022/06/13 05:06:18;;;;;;;2.60;2.00;;;17.30;72.30;;;;;;5067252;28;20521;-62
2022/06/13 05:08:44;;;;;;;5.35;2.58;;;17.30;72.30;;;;;;5068725;28;20928;-62
2022/06/13 05:11:26;;;;;;;5.20;1.70;;;17.30;72.30;;;;;;5081241;28;20020;-61
2022/06/13 05:14:06;;;;;;;5.43;2.25;;;17.30;72.40;;;;;;5079979;28;20090;-62
2022/06/13 05:16:53;;;;;;;4.90;2.10;;;17.40;72.50;;;;;;5093057;28;20411;-62
2022/06/13 05:19:28;;;;;;;4.60;1.67;;;17.40;72.30;;;;;;5080016;28;20424;-62
2022/06/13 05:22:03;;;;;;;5.22;1.48;;;17.50;72.10;;;;;;5085803;28;20032;-62
2022/06/13 05:24:41;;;;;;;4.35;1.77;;;17.60;72.10;;;;;;5080842;28;20068;-61
2022/06/13 05:27:08;;;;;;;2.75;1.73;;;17.60;72.00;;;;;;5090585;28;20028;-62
2022/06/13 05:29:35;;;;;;;2.45;1.52;;;17.70;71.90;;;;;;5077041;28;20070;-61
2022/06/13 05:32:01;;;;;;;6.07;1.77;;;17.70;71.90;;;;;;5079247;28;20032;-61
2022/06/13 05:34:33;;;;;;;2.80;1.77;;;17.70;71.80;;;;;;5079175;28;20454;-61
2022/06/13 05:37:00;;;;;;;2.42;1.65;;;17.80;71.90;;;;;;5086473;28;20057;-62
2022/06/13 05:39:25;;;;;;;2.45;2.10;;;17.80;71.80;;;;;;5086224;28;20051;-61
2022/06/13 05:41:51;;;;;;;3.33;1.70;;;17.80;71.70;;;;;;5082186;28;20040;-62
2022/06/13 05:44:17;;;;;;;3.25;1.52;;;17.80;71.70;;;;;;5073723;28;20028;-62
2022/06/13 05:46:43;;;;;;;2.35;1.70;;;17.90;71.70;;;;;;5088346;28;20028;-62
2022/06/13 05:49:12;;;;;;;2.50;1.75;;;17.90;71.70;;;;;;5087977;28;20032;-62
2022/06/13 05:51:38;;;;;;;3.97;1.95;;;18.00;71.60;;;;;;5089733;28;20111;-61
2022/06/13 05:54:03;;;;;;;7.70;2.33;;;18.00;71.50;;;;;;5074819;28;20012;-62
2022/06/13 05:56:30;;;;;;;4.40;1.83;;;18.00;71.30;;;;;;5080334;28;20024;-62
2022/06/13 05:58:56;;;;;;;9.55;2.05;;;18.10;71.20;;;;;;5095900;28;20028;-62
2022/06/13 06:01:22;;;;;;;2.55;1.55;;;18.00;71.10;;;;;;5082117;28;20031;-61
2022/06/13 06:03:48;;;;;;;3.10;1.73;;;18.00;71.00;;;;;;5076498;28;20475;-62
2022/06/13 06:06:20;;;;;;;5.50;2.47;;;18.10;70.90;;;;;;5082411;28;20111;-62
2022/06/13 06:08:46;;;;;;;4.47;1.90;;;18.10;70.90;;;;;;5085219;28;20020;-61
2022/06/13 06:11:11;;;;;;;2.40;1.48;;;18.10;70.90;;;;;;5088529;28;20024;-63
2022/06/13 06:13:37;;;;;;;2.53;1.35;;;18.20;70.80;;;;;;5086384;28;20032;-62
2022/06/13 06:16:03;;;;;;;5.25;1.35;;;18.20;70.60;;;;;;5096853;28;20036;-62
2022/06/13 06:18:30;;;;;;;2.08;1.52;;;18.20;70.30;;;;;;5083146;28;20039;-62
2022/06/13 06:20:56;;;;;;;2.05;1.52;;;18.30;70.20;;;;;;5073249;28;20494;-62
2022/06/13 06:23:22;;;;;;;3.70;1.55;;;18.30;70.00;;;;;;5084474;28;20036;-62
2022/06/13 06:25:48;;;;;;;1.42;0.90;;;18.40;69.80;;;;;;5081113;28;20108;-62
2022/06/13 06:28:21;;;;;;;1.60;0.90;;;18.60;69.60;;;;;;5077944;28;20027;-62
2022/06/13 06:30:46;;;;;;;5.22;1.25;;;18.80;69.20;;;;;;5083346;28;20036;-61
2022/06/13 06:33:13;;;;;;;1.42;0.85;;;18.90;67.80;;;;;;5079752;28;20903;-61
2022/06/13 06:35:39;;;;;;;2.85;1.42;;;19.00;67.40;;;;;;5090917;28;20031;-62
2022/06/13 06:38:06;;;;;;;1.25;1.00;;;19.00;66.50;;;;;;5074413;28;20040;-62
2022/06/13 06:40:32;;;;;;;4.88;1.40;;;18.90;66.00;;;;;;5089945;28;20046;-62
2022/06/13 06:42:57;;;;;;;0.93;0.80;;;18.90;65.70;;;;;;5094095;28;20031;-62
2022/06/13 06:45:25;;;;;;;1.88;1.10;;;19.00;65.70;;;;;;5081212;28;20082;-61
2022/06/13 06:47:53;;;;;;;2.05;1.02;;;19.00;65.20;;;;;;5079038;28;20029;-62
2022/06/13 06:50:27;;;;;;;5.95;1.73;;;19.00;65.00;;;;;;5085114;28;20032;-62
2022/06/13 06:52:53;;;;;;;2.83;1.42;;;19.00;64.90;;;;;;5088371;28;20028;-63
2022/06/13 07:00:51;;;;;;;0.98;0.77;;;19.10;64.50;;;;;;5078463;28;20032;-62
2022/06/13 07:03:18;;;;;;;2.08;1.23;;;19.20;64.50;;;;;;5094087;28;20131;-62
2022/06/13 07:05:45;;;;;;;2.40;0.98;;;19.20;64.10;;;;;;5081299;28;20028;-64
2022/06/13 07:08:11;;;;;;;4.25;1.23;;;19.20;63.50;;;;;;5091144;28;20031;-63
2022/06/13 07:10:37;;;;;;;1.40;0.77;;;19.30;63.70;;;;;;5071178;28;20021;-63
2022/06/13 07:13:03;;;;;;;0.65;0.65;;;19.40;63.40;;;;;;5087501;28;20035;-63
2022/06/13 07:15:29;;;;;;;0.82;0.50;;;19.50;63.20;;;;;;5088774;28;20028;-63
2022/06/13 07:17:55;;;;;;;1.52;0.85;;;19.60;63.10;;;;;;5082084;28;20038;-62
2022/06/13 07:20:21;;;;;;;1.85;1.13;;;19.60;62.50;;;;;;5082731;28;20029;-62
2022/06/13 07:22:53;;;;;;;1.45;0.98;;;19.60;62.30;;;;;;5084988;28;20044;-62
2022/06/13 07:25:22;;;;;;;1.00;0.55;;;19.60;61.80;;;;;;5091387;28;20050;-63
2022/06/13 07:27:47;;;;;;;0.50;0.50;;;19.50;61.60;;;;;;5079228;28;20019;-62
2022/06/13 07:30:15;;;;;;;1.65;1.08;;;19.50;61.50;;;;;;5083639;28;20028;-63
2022/06/13 07:32:41;;;;;;;0.95;0.50;;;19.50;61.30;;;;;;5086030;28;20112;-63
2022/06/13 07:35:08;;;;;;;0.45;0.40;;;19.50;60.90;;;;;;5089332;28;20036;-63
2022/06/13 07:40:19;;;;;;;1.75;0.60;;;19.60;60.70;;;;;;5088990;28;20035;-62
2022/06/13 07:42:48;;;;;;;2.97;0.95;;;19.50;60.70;;;;;;5081594;28;20388;-63
2022/06/13 07:45:19;;;;;;;1.15;0.80;;;19.50;60.30;;;;;;5077318;28;20017;-63
2022/06/13 07:47:45;;;;;;;1.37;1.00;;;19.40;60.70;;;;;;5085226;28;20093;-63
2022/06/13 07:50:13;;;;;;;3.53;1.25;;;19.60;60.80;;;;;;5080737;28;20028;-62
2022/06/13 07:52:39;;;;;;;1.08;0.90;;;19.80;60.60;;;;;;5089018;28;20066;-62
2022/06/13 07:55:06;;;;;;;0.70;0.70;;;19.90;59.90;;;;;;5094195;28;20028;-63
2022/06/13 07:57:32;;;;;;;1.00;0.70;;;20.00;60.00;;;;;;5085109;28;20123;-62
2022/06/13 07:59:57;;;;;;;1.17;0.93;;;20.00;59.70;;;;;;5076669;28;20075;-62
2022/06/13 08:02:29;;;;;;;3.05;1.20;;;20.10;59.60;;;;;;5080506;28;20032;-62
2022/06/13 08:04:54;;;;;;;1.90;1.10;;;20.40;59.30;;;;;;5077533;28;20043;-63
2022/06/13 08:07:20;;;;;;;2.85;0.82;;;20.40;58.30;;;;;;5082449;28;20032;-63
2022/06/13 08:09:46;;;;;;;0.80;0.80;;;20.40;57.70;;;;;;5083748;28;20039;-63
2022/06/13 08:12:14;;;;;;;1.42;0.70;;;20.30;57.20;;;;;;5085224;28;20017;-62
2022/06/13 08:14:45;;;;;;;0.47;0.47;;;20.20;56.40;;;;;;5079404;28;20062;-63
2022/06/13 08:17:12;;;;;;;0.40;0.40;;;20.00;56.30;;;;;;5082481;28;20060;-62
2022/06/13 08:19:37;;;;;;;0.60;0.60;;;20.00;56.00;;;;;;5093032;28;20084;-63
2022/06/13 08:22:03;;;;;;;3.20;0.73;;;20.10;55.70;;;;;;5090993;28;20036;-63
2022/06/13 08:24:29;;;;;;;0.30;0.30;;;20.10;55.30;;;;;;5087960;28;20483;-62
2022/06/13 08:26:55;;;;;;;0.40;0.40;;;20.00;56.00;;;;;;5087215;28;20040;-65
2022/06/13 08:29:20;;;;;;;0.40;0.40;;;20.00;55.50;;;;;;5086817;28;20028;-61
2022/06/13 08:31:46;;;;;;;0.95;0.40;;;19.90;55.30;;;;;;5089242;28;20081;-63
2022/06/13 08:34:12;;;;;;;0.93;0.88;;;19.80;55.20;;;;;;5085208;28;20646;-62
2022/06/13 08:36:38;;;;;;;1.17;0.50;;;19.80;55.20;;;;;;5089441;28;20104;-63
2022/06/13 08:39:04;;;;;;;0.57;0.40;;;19.80;55.40;;;;;;5083216;28;20039;-62
2022/06/13 08:41:58;;;;;;;2.30;0.45;;;19.90;55.90;;;;;;5093621;28;20049;-62
2022/06/13 08:45:04;;;;;;;0.50;0.50;;;20.10;55.90;;;;;;5084593;28;20118;-63
2022/06/13 08:47:46;;;;;;;0.30;0.30;;;20.30;55.90;;;;;;5078285;28;20047;-61
2022/06/13 08:50:23;;;;;;;0.32;0.32;;;20.30;56.00;;;;;;5087189;28;20020;-62
2022/06/13 08:52:57;;;;;;;2.35;0.50;;;20.30;56.40;;;;;;5085794;28;20036;-62
2022/06/13 08:55:47;;;;;;;1.08;0.52;;;20.20;55.90;;;;;;5080002;28;20036;-63
2022/06/13 08:58:25;;;;;;;0.60;0.43;;;20.10;55.60;;;;;;5084728;28;20051;-63
2022/06/13 09:00:59;;;;;;;0.95;0.60;;;19.90;56.00;;;;;;5081255;28;21285;-62
2022/06/13 09:03:34;;;;;;;1.08;0.55;;;19.80;56.20;;;;;;5084613;28;20039;-63
2022/06/13 09:06:14;;;;;;;0.80;0.80;;;19.90;56.30;;;;;;5079791;28;20036;-63
2022/06/13 09:08:58;;;;;;;4.47;0.50;;;20.10;55.60;;;;;;5073325;28;20107;-63
2022/06/13 09:11:33;;;;;;;0.35;0.30;;;20.30;55.00;;;;;;5082511;28;20052;-64
2022/06/13 09:14:09;;;;;;;0.30;0.30;;;20.50;53.80;;;;;;5077050;28;20063;-62
2022/06/13 09:16:37;;;;;;;0.30;0.30;;;20.70;54.20;;;;;;5084306;28;20502;-63
2022/06/13 09:19:18;;;;;;;1.00;0.68;;;21.00;52.70;;;;;;5087382;28;20024;-63
2022/06/13 09:22:02;;;;;;;0.55;0.55;;;21.20;51.80;;;;;;5082856;28;20403;-62
2022/06/13 09:24:49;;;;;;;0.50;0.50;;;21.20;51.00;;;;;;5088681;28;20020;-63
2022/06/13 09:27:23;;;;;;;0.50;0.40;;;21.00;51.40;;;;;;5085529;28;20494;-63
2022/06/13 09:30:09;;;;;;;0.50;0.50;;;20.80;52.20;;;;;;5083525;28;20103;-62
2022/06/13 09:32:59;;;;;;;0.60;0.60;;;20.60;52.80;;;;;;5090738;28;20028;-62
2022/06/13 09:35:31;;;;;;;0.30;0.30;;;20.40;53.50;;;;;;5088774;28;20472;-62
2022/06/13 09:38:16;;;;;;;0.75;0.40;;;20.50;53.70;;;;;;5096278;28;20049;-62
2022/06/13 09:40:54;;;;;;;0.65;0.50;;;20.80;53.40;;;;;;5086111;28;20024;-63
2022/06/13 09:43:42;;;;;;;0.43;0.43;;;21.10;52.80;;;;;;5091691;28;20028;-62
2022/06/13 09:46:14;;;;;;;1.23;0.68;;;21.10;51.30;;;;;;5101991;28;20028;-63
2022/06/13 09:48:47;;;;;;;0.40;0.40;;;21.00;51.60;;;;;;5099720;28;20425;-63
2022/06/13 09:51:24;;;;;;;0.73;0.60;;;21.10;52.00;;;;;;5092252;28;20024;-63
2022/06/13 09:53:54;;;;;;;0.40;0.40;;;21.10;51.70;;;;;;5090547;28;20046;-62
2022/06/13 09:56:33;;;;;;;0.38;0.38;;;21.10;52.10;;;;;;5087951;28;20067;-62
2022/06/13 09:59:27;;;;;;;0.75;0.60;;;21.10;51.80;;;;;;5092640;28;20039;-62
2022/06/13 10:02:04;;;;;;;0.95;0.60;;;21.00;51.70;;;;;;5098304;28;20055;-62
2022/06/13 10:04:51;;;;;;;2.15;0.60;;;21.10;50.90;;;;;;5089599;28;20127;-63
2022/06/13 10:07:34;;;;;;;0.60;0.50;;;21.30;50.90;;;;;;5094698;28;20029;-63
2022/06/13 10:10:08;;;;;;;0.50;0.50;;;21.50;50.70;;;;;;5087048;28;20028;-62
2022/06/13 10:13:14;;;;;;;0.52;0.40;;;21.40;49.00;;;;;;5089734;28;20032;-62
2022/06/13 10:16:18;;;;;;;0.30;0.30;;;21.30;49.40;;;;;;5086948;28;20055;-63
2022/06/13 10:19:00;;;;;;;0.95;0.60;;;21.00;50.20;;;;;;5080623;28;20064;-62
2022/06/13 10:21:55;;;;;;;0.22;0.22;;;20.80;50.80;;;;;;5091418;28;20032;-63
2022/06/13 10:24:30;;;;;;;0.30;0.30;;;20.80;51.40;;;;;;5088949;28;20039;-62
2022/06/13 10:27:27;;;;;;;0.55;0.38;;;21.00;51.10;;;;;;5093968;28;20535;-62
2022/06/13 10:30:11;;;;;;;2.90;0.40;;;21.30;51.00;;;;;;5080412;28;20034;-62
2022/06/13 10:33:23;;;;;;;0.50;0.40;;;21.70;49.60;;;;;;5092736;28;20036;-62
2022/06/13 10:35:52;;;;;;;0.93;0.40;;;21.90;49.20;;;;;;5074272;28;20051;-62
2022/06/13 10:38:42;;;;;;;0.50;0.50;;;22.10;48.40;;;;;;5083141;28;20142;-63
2022/06/13 10:41:08;;;;;;;0.90;0.30;;;22.40;48.10;;;;;;5091509;28;20371;-63
2022/06/13 10:43:36;;;;;;;3.97;0.60;;;22.50;47.90;;;;;;5090471;28;20032;-63
2022/06/13 10:46:02;;;;;;;0.38;0.38;;;22.60;47.60;;;;;;5103212;28;20066;-63
2022/06/13 10:48:36;;;;;;;1.25;0.50;;;22.50;47.50;;;;;;5092818;28;20063;-63
2022/06/13 10:51:04;;;;;;;0.55;0.55;;;22.60;47.90;;;;;;5090626;28;20028;-62
2022/06/13 10:53:54;;;;;;;0.52;0.52;;;22.80;47.60;;;;;;5084957;28;20025;-63
2022/06/13 10:56:27;;;;;;;1.38;0.63;;;23.00;46.50;;;;;;5072159;28;20058;-63
2022/06/13 10:58:57;;;;;;;0.65;0.50;;;23.10;46.50;;;;;;5074112;28;20032;-63
2022/06/13 11:01:28;;;;;;;0.47;0.45;;;23.20;45.90;;;;;;5092422;28;20040;-63
2022/06/13 11:03:58;;;;;;;0.95;0.68;;;23.30;46.10;;;;;;5087393;28;20032;-63
2022/06/13 11:06:31;;;;;;;0.45;0.45;;;23.20;45.10;;;;;;5079622;28;20036;-60
2022/06/13 11:09:03;;;;;;;0.32;0.32;;;22.80;45.90;;;;;;5070708;28;20024;-62
2022/06/13 11:11:36;;;;;;;0.35;0.35;;;22.80;46.10;;;;;;5071817;28;20356;-63
2022/06/13 11:14:03;;;;;;;0.47;0.47;;;22.90;45.00;;;;;;5071699;28;20099;-63
2022/06/13 11:22:37;;;;;;;0.50;0.50;;;22.60;45.40;;;;;;5071505;28;20088;-63
2022/06/13 11:22:45;;;;;;;1.02;0.45;;;22.40;45.90;;;;;;5078607;28;20039;-63
2022/06/13 11:25:14;;;;;;;2.20;0.55;;;22.00;46.00;;;;;;5076935;28;20071;-63
2022/06/13 11:27:41;;;;;;;0.77;0.52;;;21.70;46.30;;;;;;5082664;28;20028;-62
2022/06/13 11:30:25;;;;;;;0.22;0.22;;;21.50;46.80;;;;;;5085645;28;20051;-62
2022/06/13 11:33:25;;;;;;;0.50;0.40;;;21.40;47.10;;;;;;5076895;28;20022;-63
2022/06/13 11:36:12;;;;;;;2.45;0.93;;;21.40;47.30;;;;;;5054253;28;20028;-62
2022/06/13 11:38:59;;;;;;;1.25;0.68;;;21.60;47.20;;;;;;5071206;28;20430;-62
2022/06/13 11:41:27;;;;;;;0.82;0.82;;;22.00;46.40;;;;;;5081072;28;20017;-62
2022/06/13 11:43:59;;;;;;;1.13;0.70;;;22.50;45.40;;;;;;5073340;28;20500;-62
2022/06/13 11:46:28;;;;;;;3.53;0.50;;;22.70;45.30;;;;;;5082222;28;20060;-63
2022/06/13 11:48:56;;;;;;;0.57;0.57;;;23.00;45.50;;;;;;5071973;28;20096;-62
2022/06/13 11:51:26;;;;;;;0.90;0.47;;;23.40;45.20;;;;;;5079353;28;20031;-63
2022/06/13 11:53:55;;;;;;;2.05;0.70;;;23.50;44.50;;;;;;5069599;28;20615;-62
2022/06/13 11:56:29;;;;;;;0.45;0.30;;;23.50;43.70;;;;;;5070261;28;20021;-63
2022/06/13 11:58:58;;;;;;;0.50;0.50;;;23.50;43.10;;;;;;5073917;28;20041;-62
2022/06/13 12:01:35;;;;;;;0.43;0.43;;;23.50;43.30;;;;;;5070196;28;20033;-62
2022/06/13 12:04:07;;;;;;;0.68;0.40;;;23.40;43.20;;;;;;5072571;28;20044;-63
2022/06/13 12:06:44;;;;;;;2.05;0.55;;;23.20;42.90;;;;;;5082848;28;20018;-63
2022/06/13 12:09:23;;;;;;;0.43;0.40;;;23.20;42.20;;;;;;5069175;28;20032;-62
2022/06/13 12:11:58;;;;;;;0.50;0.32;;;23.50;43.00;;;;;;5076637;28;20105;-63
2022/06/13 12:14:49;;;;;;;0.68;0.45;;;23.70;43.00;;;;;;5076289;28;20026;-63
2022/06/13 12:17:36;;;;;;;0.57;0.40;;;23.60;43.20;;;;;;5077834;28;20048;-62
2022/06/13 12:20:24;;;;;;;0.40;0.40;;;23.50;43.50;;;;;;5076847;28;20031;-63
2022/06/13 12:23:09;;;;;;;0.43;0.43;;;23.50;43.20;;;;;;5090394;28;20031;-62
2022/06/13 12:25:45;;;;;;;1.02;0.40;;;23.30;43.50;;;;;;5070623;28;20029;-62
2022/06/13 12:28:17;;;;;;;1.55;0.40;;;23.20;43.50;;;;;;5069860;28;20406;-62
2022/06/13 12:31:00;;;;;;;0.32;0.32;;;23.40;42.70;;;;;;5076208;28;20099;-63
2022/06/13 12:33:35;;;;;;;0.32;0.30;;;23.60;42.60;;;;;;5083190;28;20047;-63
2022/06/13 12:36:04;;;;;;;0.50;0.50;;;24.10;42.40;;;;;;5070097;28;20104;-63
2022/06/13 12:39:06;;;;;;;0.40;0.40;;;24.30;41.80;;;;;;5069020;28;20032;-63
2022/06/13 12:41:50;;;;;;;0.40;0.30;;;24.30;41.50;;;;;;5080326;28;20036;-63
2022/06/13 12:44:37;;;;;;;0.90;0.50;;;24.00;41.10;;;;;;5085029;28;20705;-63
2022/06/13 12:47:20;;;;;;;0.30;0.30;;;23.90;41.30;;;;;;5088365;28;20509;-63
2022/06/13 12:49:50;;;;;;;0.38;0.38;;;24.00;41.50;;;;;;5068801;28;20040;-62
2022/06/13 12:52:27;;;;;;;0.50;0.50;;;24.30;41.40;;;;;;5077938;28;20074;-63
2022/06/13 12:54:57;;;;;;;0.50;0.40;;;24.20;40.40;;;;;;5080905;28;20034;-62
2022/06/13 12:57:29;;;;;;;0.55;0.40;;;23.70;40.10;;;;;;5089503;28;20036;-63
2022/06/13 13:00:17;;;;;;;1.85;0.47;;;23.30;40.80;;;;;;5090317;28;20372;-62
2022/06/13 13:03:02;;;;;;;1.65;0.50;;;23.40;42.10;;;;;;5084486;28;20036;-63
2022/06/13 13:05:45;;;;;;;0.40;0.30;;;23.70;41.70;;;;;;5087029;28;20517;-63
2022/06/13 13:08:42;;;;;;;0.50;0.40;;;24.20;41.30;;;;;;5082813;28;20016;-63
2022/06/13 13:11:32;;;;;;;0.57;0.50;;;24.60;40.40;;;;;;5071181;28;20040;-63
2022/06/13 13:14:27;;;;;;;0.43;0.43;;;25.00;40.20;;;;;;5088928;28;20059;-62
2022/06/13 13:17:12;;;;;;;0.40;0.40;;;25.30;38.90;;;;;;5093851;28;20035;-62
2022/06/13 13:19:51;;;;;;;0.73;0.60;;;25.20;38.50;;;;;;5083752;28;20479;-63
2022/06/13 13:22:43;;;;;;;1.27;0.30;;;24.80;38.10;;;;;;5093111;28;20062;-62
2022/06/13 13:25:16;;;;;;;0.75;0.70;;;24.20;38.90;;;;;;5090807;28;20072;-63
2022/06/13 13:27:58;;;;;;;0.57;0.28;;;23.90;39.70;;;;;;5099599;28;20028;-63
2022/06/13 13:30:47;;;;;;;0.38;0.30;;;24.00;39.90;;;;;;5094292;28;20395;-62
2022/06/13 13:33:18;;;;;;;0.60;0.50;;;24.40;39.80;;;;;;5082730;28;20031;-63
2022/06/13 13:36:02;;;;;;;1.25;0.50;;;24.70;39.00;;;;;;5089095;28;20033;-63
2022/06/13 13:38:34;;;;;;;0.50;0.50;;;25.00;36.80;;;;;;5089309;28;20442;-62
2022/06/13 13:41:15;;;;;;;0.30;0.30;;;25.00;37.20;;;;;;5089455;28;20027;-63
2022/06/13 13:43:55;;;;;;;0.35;0.30;;;25.00;37.10;;;;;;5087713;28;20027;-62